createdAt,value
2023-04-03T00:00:17.396Z,1.75
2023-04-03T00:02:50.875Z,1.17
2023-04-03T00:05:25.663Z,1.30
2023-04-03T00:07:58.987Z,1.55
2023-04-03T00:10:32.327Z,1.25
2023-04-03T00:13:06.807Z,1.23
2023-04-03T00:15:40.726Z,1.17
2023-04-03T00:18:14.318Z,1.25
2023-04-03T00:20:49.736Z,1.58
2023-04-03T00:23:24.625Z,1.25
2023-04-03T00:25:58.086Z,1.40
2023-04-03T00:28:31.444Z,1.15
2023-04-03T00:31:05.090Z,1.38
2023-04-03T00:33:38.577Z,1.10
2023-04-03T00:36:14.509Z,1.30
2023-04-03T00:38:48.059Z,1.33
2023-04-03T00:41:22.345Z,1.25
2023-04-03T00:43:55.728Z,1.30
2023-04-03T00:46:29.299Z,2.10
2023-04-03T00:49:02.961Z,1.55
2023-04-03T00:51:37.970Z,1.30
2023-04-03T00:54:11.607Z,1.23
2023-04-03T00:56:46.724Z,1.63
2023-04-03T00:59:26.973Z,1.20
2023-04-03T01:02:01.828Z,1.00
2023-04-03T01:04:38.124Z,0.80
2023-04-03T01:07:17.430Z,1.30
2023-04-03T01:09:54.982Z,1.20
2023-04-03T01:12:33.185Z,1.70
2023-04-03T01:15:08.755Z,0.82
2023-04-03T01:17:44.620Z,1.52
2023-04-03T01:21:02.840Z,0.90
2023-04-03T01:23:49.881Z,1.75
2023-04-03T01:26:23.331Z,1.40
2023-04-03T01:28:57.319Z,1.60
2023-04-03T01:31:35.962Z,1.33
2023-04-03T01:34:10.721Z,1.50
2023-04-03T01:36:44.082Z,1.27
2023-04-03T01:39:17.644Z,1.63
2023-04-03T01:41:51.784Z,1.25
2023-04-03T01:44:31.386Z,1.60
2023-04-03T01:47:08.488Z,1.58
2023-04-03T01:49:43.932Z,1.23
2023-04-03T01:52:17.337Z,1.90
2023-04-03T01:54:51.503Z,1.38
2023-04-03T01:57:25.076Z,1.13
2023-04-03T01:59:58.636Z,1.27
2023-04-03T02:02:32.101Z,1.42
2023-04-03T02:05:07.627Z,1.70
2023-04-03T02:07:41.034Z,1.55
2023-04-03T02:10:15.455Z,2.30
2023-04-03T02:12:49.271Z,1.33
2023-04-03T02:15:22.637Z,1.13
2023-04-03T02:17:56.026Z,1.23
2023-04-03T02:20:31.571Z,1.80
2023-04-03T02:23:05.907Z,1.30
2023-04-03T02:25:39.447Z,1.30
2023-04-03T02:28:12.788Z,1.42
2023-04-03T02:30:46.791Z,1.60
2023-04-03T02:33:20.212Z,1.67
2023-04-03T02:35:56.892Z,1.58
2023-04-03T02:38:30.781Z,1.60
2023-04-03T02:41:05.375Z,1.45
2023-04-03T02:43:39.567Z,1.58
2023-04-03T02:46:16.046Z,1.50
2023-04-03T02:48:49.949Z,1.20
2023-04-03T02:51:25.067Z,1.60
2023-04-03T02:54:00.048Z,1.33
2023-04-03T02:56:38.113Z,1.67
2023-04-03T02:59:11.821Z,1.30
2023-04-03T03:01:46.750Z,1.15
2023-04-03T03:04:20.498Z,1.92
2023-04-03T03:06:56.004Z,1.60
2023-04-03T03:09:30.422Z,1.58
2023-04-03T03:12:03.852Z,1.17
2023-04-03T03:14:37.225Z,1.92
2023-04-03T03:17:10.587Z,1.88
2023-04-03T03:19:44.001Z,1.75
2023-04-03T03:22:18.800Z,2.08
2023-04-03T03:24:52.265Z,1.50
2023-04-03T03:27:26.029Z,2.00
2023-04-03T03:32:32.561Z,1.75
2023-04-03T03:35:06.551Z,1.73
2023-04-03T03:37:41.268Z,1.92
2023-04-03T03:40:15.494Z,2.53
2023-04-03T03:42:51.688Z,1.70
2023-04-03T03:45:25.656Z,1.50
2023-04-03T03:50:32.504Z,1.48
2023-04-03T03:53:07.473Z,2.13
2023-04-03T03:55:41.232Z,1.70
2023-04-03T03:58:14.747Z,1.40
2023-04-03T04:00:48.081Z,1.90
2023-04-03T04:03:22.069Z,1.60
2023-04-03T04:05:56.782Z,1.30
2023-04-03T04:08:32.050Z,1.65
2023-04-03T04:11:05.570Z,1.30
2023-04-03T04:13:39.284Z,1.10
2023-04-03T04:16:13.774Z,1.50
2023-04-03T04:18:47.186Z,1.55
2023-04-03T04:21:20.864Z,1.48
2023-04-03T04:26:30.012Z,1.10
2023-04-03T04:29:03.486Z,2.38
2023-04-03T04:31:40.537Z,2.17
2023-04-03T04:36:47.932Z,1.40
2023-04-03T04:39:22.816Z,1.23
2023-04-03T04:41:56.306Z,1.45
2023-04-03T04:44:30.562Z,1.60
2023-04-03T04:47:30.825Z,1.38
2023-04-03T04:50:04.686Z,1.77
2023-04-03T04:52:40.056Z,1.52
2023-04-03T04:55:16.581Z,1.33
2023-04-03T04:57:50.100Z,1.35
2023-04-03T05:02:57.419Z,1.45
2023-04-03T05:05:31.339Z,1.50
2023-04-03T05:08:04.855Z,2.00
2023-04-03T05:10:41.739Z,2.45
2023-04-03T05:13:15.672Z,1.80
2023-04-03T05:15:49.787Z,1.85
2023-04-03T05:18:23.754Z,1.98
2023-04-03T05:20:58.790Z,1.50
2023-04-03T05:23:34.832Z,1.10
2023-04-03T05:26:11.280Z,1.40
2023-04-03T05:28:45.943Z,1.88
2023-04-03T05:31:19.999Z,2.25
2023-04-03T05:33:54.041Z,2.08
2023-04-03T05:36:28.008Z,1.48
2023-04-03T05:39:06.688Z,1.90
2023-04-03T05:41:45.112Z,2.20
2023-04-03T05:44:19.064Z,2.20
2023-04-03T05:46:54.622Z,2.10
2023-04-03T05:49:28.178Z,2.67
2023-04-03T05:52:01.798Z,2.40
2023-04-03T05:54:37.613Z,2.50
2023-04-03T05:57:22.807Z,2.45
2023-04-03T05:59:56.523Z,2.30
2023-04-03T06:02:30.646Z,2.00
2023-04-03T06:05:05.045Z,2.53
2023-04-03T06:07:38.667Z,2.17
2023-04-03T06:10:14.094Z,2.58
2023-04-03T06:12:48.824Z,2.05
2023-04-03T06:15:47.723Z,2.00
2023-04-03T06:18:21.577Z,2.00
2023-04-03T06:20:55.344Z,2.28
2023-04-03T06:23:28.763Z,1.77
2023-04-03T06:26:02.678Z,2.13
2023-04-03T06:28:37.403Z,1.60
2023-04-03T06:31:11.067Z,1.88
2023-04-03T06:36:22.118Z,2.15
2023-04-03T06:38:55.507Z,1.77
2023-04-03T06:41:29.019Z,1.85
2023-04-03T06:46:37.820Z,1.95
2023-04-03T06:49:11.704Z,1.90
2023-04-03T06:54:18.229Z,1.88
2023-04-03T06:56:52.112Z,2.08
2023-04-03T06:59:27.206Z,2.10
2023-04-03T07:02:00.969Z,1.80
2023-04-03T07:07:08.540Z,2.42
2023-04-03T07:09:45.103Z,2.05
2023-04-03T07:12:18.712Z,1.60
2023-04-03T07:14:53.884Z,1.70
2023-04-03T07:17:28.000Z,2.35
2023-04-03T07:20:01.678Z,1.60
2023-04-03T07:22:38.404Z,2.42
2023-04-03T07:25:11.885Z,2.28
2023-04-03T07:27:45.337Z,2.22
2023-04-03T07:30:20.222Z,1.92
2023-04-03T07:32:53.698Z,1.90
2023-04-03T07:35:27.438Z,1.30
2023-04-03T07:40:35.201Z,2.58
2023-04-03T07:45:44.243Z,1.75
2023-04-03T07:48:19.147Z,1.77
2023-04-03T07:50:53.073Z,1.48
2023-04-03T07:53:26.489Z,1.90
2023-04-03T07:56:00.479Z,1.30
2023-04-03T07:58:34.765Z,1.85
2023-04-03T08:01:09.547Z,1.30
2023-04-03T08:03:43.047Z,2.08
2023-04-03T08:06:20.033Z,1.55
2023-04-03T08:08:59.930Z,1.70
2023-04-03T08:11:34.053Z,1.63
2023-04-03T08:14:08.342Z,1.33
2023-04-03T08:16:45.222Z,1.80
2023-04-03T08:19:25.956Z,1.63
2023-04-03T08:22:01.813Z,2.50
2023-04-03T08:27:36.037Z,2.00
2023-04-03T08:30:11.018Z,1.70
2023-04-03T08:32:45.938Z,1.88
2023-04-03T08:35:20.941Z,3.05
2023-04-03T08:37:54.287Z,1.65
2023-04-03T08:40:27.997Z,1.42
2023-04-03T08:45:46.923Z,1.48
2023-04-03T08:48:23.715Z,1.50
2023-04-03T08:51:03.633Z,1.55
2023-04-03T08:53:42.014Z,1.55
2023-04-03T08:56:19.022Z,1.38
2023-04-03T08:58:57.748Z,1.52
2023-04-03T09:01:37.671Z,1.88
2023-04-03T09:04:17.256Z,2.35
2023-04-03T09:06:56.627Z,2.35
2023-04-03T09:09:36.237Z,1.92
2023-04-03T09:12:19.271Z,2.30
2023-04-03T09:15:03.993Z,1.73
2023-04-03T09:17:44.467Z,2.55
2023-04-03T09:20:26.917Z,1.88
2023-04-03T09:23:00.480Z,2.03
2023-04-03T09:25:36.928Z,1.67
2023-04-03T09:28:11.315Z,1.70
2023-04-03T09:30:45.388Z,1.63
2023-04-03T09:36:44.004Z,2.05
2023-04-03T09:39:19.756Z,1.67
2023-04-03T09:42:02.623Z,1.30
2023-04-03T09:44:38.014Z,8.82
2023-04-03T09:47:21.345Z,30.90
2023-04-03T09:50:18.218Z,46.70
2023-04-03T09:52:54.171Z,83.97
2023-04-03T09:55:30.660Z,170.52
2023-04-03T09:58:06.102Z,191.82
2023-04-03T10:00:42.302Z,149.77
2023-04-03T10:03:27.407Z,135.70
2023-04-03T10:06:03.206Z,110.22
2023-04-03T10:08:38.000Z,112.00
2023-04-03T10:11:14.676Z,92.93
2023-04-03T10:13:57.511Z,93.78
2023-04-03T10:16:38.675Z,81.82
2023-04-03T10:19:32.365Z,83.03
2023-04-03T10:22:13.558Z,82.63
2023-04-03T10:24:54.967Z,77.38
2023-04-03T10:27:42.138Z,72.90
2023-04-03T10:30:25.270Z,73.43
2023-04-03T10:33:07.754Z,73.33
2023-04-03T10:35:51.401Z,66.57
2023-04-03T10:38:36.347Z,60.70
2023-04-03T10:41:22.851Z,60.55
2023-04-03T10:44:07.431Z,59.58
2023-04-03T10:46:46.895Z,54.70
2023-04-03T10:49:36.553Z,57.03
2023-04-03T10:52:17.953Z,53.35
2023-04-03T10:55:01.685Z,50.95
2023-04-03T10:57:41.059Z,48.03
2023-04-03T11:00:50.493Z,46.60
2023-04-03T11:03:33.319Z,45.60
2023-04-03T11:06:14.563Z,42.70
2023-04-03T11:09:22.606Z,38.97
2023-04-03T11:12:02.688Z,39.13
2023-04-03T11:14:40.768Z,35.70
2023-04-03T11:17:23.789Z,35.05
2023-04-03T11:20:03.380Z,34.08
2023-04-03T11:22:41.926Z,30.35
2023-04-03T11:25:22.789Z,28.15
2023-04-03T11:27:58.816Z,29.70
2023-04-03T11:30:45.635Z,25.48
2023-04-03T11:33:30.662Z,26.98
2023-04-03T11:36:18.969Z,26.30
2023-04-03T11:39:02.472Z,24.13
2023-04-03T11:41:36.736Z,22.48
2023-04-03T11:44:34.406Z,22.38
2023-04-03T11:47:10.648Z,20.63
2023-04-03T11:49:55.377Z,21.15
2023-04-03T11:53:00.735Z,19.42
2023-04-03T11:55:59.026Z,20.02
2023-04-03T11:58:34.846Z,18.85
2023-04-03T12:01:10.666Z,18.48
2023-04-03T12:04:07.367Z,15.88
2023-04-03T12:07:22.690Z,16.73
2023-04-03T12:10:01.910Z,14.90
2023-04-03T12:12:42.034Z,14.45
2023-04-03T12:15:28.148Z,13.82
2023-04-03T12:18:01.602Z,13.98
2023-04-03T12:20:58.267Z,14.07
2023-04-03T12:23:34.055Z,12.35
2023-04-03T12:26:23.929Z,11.80
2023-04-03T12:28:58.178Z,11.98
2023-04-03T12:34:27.442Z,10.65
2023-04-03T12:37:05.965Z,9.45
2023-04-03T12:39:57.893Z,10.38
2023-04-03T12:43:12.147Z,9.27
2023-04-03T12:45:50.677Z,10.38
2023-04-03T12:48:28.055Z,10.05
2023-04-03T12:51:02.643Z,7.97
2023-04-03T12:53:39.584Z,8.30
2023-04-03T12:56:25.621Z,8.07
2023-04-03T12:59:16.799Z,6.68
2023-04-03T13:01:57.093Z,7.13
2023-04-03T13:04:32.593Z,5.95
2023-04-03T13:07:06.017Z,6.63
2023-04-03T13:09:39.422Z,6.75
2023-04-03T13:12:15.059Z,5.45
2023-04-03T13:14:56.936Z,5.43
2023-04-03T13:17:30.389Z,6.10
2023-04-03T13:20:19.763Z,5.70
2023-04-03T13:23:01.353Z,5.30
2023-04-03T13:25:37.529Z,4.93
2023-04-03T13:28:15.476Z,4.65
2023-04-03T13:31:02.881Z,4.95
2023-04-03T13:33:39.908Z,5.82
2023-04-03T13:36:20.628Z,4.30
2023-04-03T13:39:01.465Z,4.80
2023-04-03T13:41:36.732Z,4.88
2023-04-03T13:44:27.762Z,5.00
2023-04-03T13:47:17.534Z,4.82
2023-04-03T13:50:04.156Z,5.22
2023-04-03T13:52:43.983Z,4.28
2023-04-03T13:55:26.514Z,3.70
2023-04-03T13:58:02.950Z,4.00
2023-04-03T14:00:40.702Z,3.97
2023-04-03T14:03:28.898Z,3.75
2023-04-03T14:06:18.596Z,4.00
2023-04-03T14:08:53.634Z,4.03
2023-04-03T14:11:42.463Z,3.42
2023-04-03T14:14:33.382Z,4.05
2023-04-03T14:17:24.696Z,4.05
2023-04-03T14:20:01.986Z,3.37
2023-04-03T14:22:37.289Z,3.00
2023-04-03T14:25:13.124Z,3.72
2023-04-03T14:27:49.832Z,2.67
2023-04-03T14:30:25.989Z,2.92
2023-04-03T14:33:00.288Z,2.92
2023-04-03T14:35:36.677Z,2.72
2023-04-03T14:38:23.464Z,2.58
2023-04-03T14:41:06.272Z,3.17
2023-04-03T14:43:52.028Z,1.98
2023-04-03T14:46:42.936Z,2.30
2023-04-03T14:49:27.526Z,2.65
2023-04-03T14:52:02.351Z,2.25
2023-04-03T14:54:36.791Z,2.92
2023-04-03T14:57:13.808Z,2.40
2023-04-03T14:59:47.937Z,2.40
2023-04-03T15:02:30.808Z,2.05
2023-04-03T15:05:07.659Z,2.00
2023-04-03T15:07:44.241Z,1.40
2023-04-03T15:10:20.071Z,1.80
2023-04-03T15:12:54.700Z,1.90
2023-04-03T15:15:31.240Z,1.85
2023-04-03T15:18:05.781Z,2.00
2023-04-03T15:20:39.636Z,1.70
2023-04-03T15:23:16.821Z,1.52
2023-04-03T15:25:52.104Z,1.65
2023-04-03T15:28:31.048Z,1.48
2023-04-03T15:31:05.025Z,1.25
2023-04-03T15:33:39.105Z,1.48
2023-04-03T15:38:51.957Z,1.52
2023-04-03T15:41:25.626Z,1.67
2023-04-03T15:44:00.636Z,1.55
2023-04-03T15:46:35.089Z,1.20
2023-04-03T15:49:08.690Z,1.60
2023-04-03T15:51:42.273Z,1.40
2023-04-03T15:54:18.178Z,1.35
2023-04-03T15:56:51.703Z,1.55
2023-04-03T15:59:25.212Z,1.40
2023-04-03T16:01:59.270Z,1.30
2023-04-03T16:04:32.829Z,1.40
2023-04-03T16:07:06.397Z,1.20
2023-04-03T16:09:41.310Z,1.33
2023-04-03T16:12:14.684Z,1.45
2023-04-03T16:14:48.133Z,1.45
2023-04-03T16:17:21.559Z,1.42
2023-04-03T16:19:56.306Z,1.20
2023-04-03T16:22:30.878Z,1.35
2023-04-03T16:25:06.787Z,1.70
2023-04-03T16:27:40.509Z,1.48
2023-04-03T16:30:14.613Z,1.30
2023-04-03T16:32:48.504Z,1.02
2023-04-03T16:35:22.029Z,1.67
2023-04-03T16:37:55.395Z,1.40
2023-04-03T16:40:30.192Z,1.40
2023-04-03T16:43:04.143Z,1.42
2023-04-03T16:45:37.769Z,1.30
2023-04-03T16:50:50.017Z,1.20
2023-04-03T16:53:23.995Z,1.10
2023-04-03T16:56:00.018Z,2.20
2023-04-03T16:58:33.378Z,1.75
2023-04-03T17:01:14.656Z,1.10
2023-04-03T17:03:48.666Z,1.08
2023-04-03T17:08:57.979Z,1.50
2023-04-03T17:14:14.001Z,1.63
2023-04-03T17:16:47.606Z,1.42
2023-04-03T17:19:21.118Z,1.67
2023-04-03T17:21:54.663Z,1.25
2023-04-03T17:24:29.180Z,1.88
2023-04-03T17:27:04.855Z,1.50
2023-04-03T17:29:38.606Z,1.10
2023-04-03T17:32:12.294Z,1.10
2023-04-03T17:34:47.694Z,1.48
2023-04-03T17:37:21.121Z,1.00
2023-04-03T17:39:54.534Z,1.15
2023-04-03T17:42:31.406Z,1.30
2023-04-03T17:45:05.252Z,1.30
2023-04-03T17:50:12.516Z,1.88
2023-04-03T17:52:46.030Z,1.20
2023-04-03T17:55:19.711Z,1.17
2023-04-03T17:57:54.531Z,1.48
2023-04-03T18:00:28.047Z,1.27
2023-04-03T18:03:01.609Z,2.30
2023-04-03T18:05:35.313Z,1.60
2023-04-03T18:10:42.539Z,1.15
2023-04-03T18:15:51.774Z,1.90
2023-04-03T18:18:25.225Z,1.40
2023-04-03T18:20:58.705Z,1.48
2023-04-03T18:23:34.128Z,1.60
2023-04-03T18:26:09.918Z,1.20
2023-04-03T18:29:00.848Z,1.50
2023-04-03T18:31:36.235Z,1.50
2023-04-03T18:34:09.699Z,1.30
2023-04-03T18:36:44.731Z,1.73
2023-04-03T18:39:18.446Z,1.10
2023-04-03T18:44:27.714Z,1.20
2023-04-03T18:47:01.367Z,1.20
2023-04-03T18:49:37.034Z,1.35
2023-04-03T18:52:12.052Z,1.33
2023-04-03T18:54:45.595Z,1.20
2023-04-03T18:57:19.219Z,1.63
2023-04-03T18:59:54.219Z,1.40
2023-04-03T19:02:27.816Z,1.30
2023-04-03T19:05:01.498Z,1.58
2023-04-03T19:07:35.270Z,1.38
2023-04-03T19:12:42.481Z,1.83
2023-04-03T19:15:18.671Z,1.50
2023-04-03T19:17:52.094Z,1.38
2023-04-03T19:20:25.703Z,1.50
2023-04-03T19:22:59.120Z,1.40
2023-04-03T19:25:32.450Z,1.40
2023-04-03T19:28:06.024Z,1.55
2023-04-03T19:30:40.957Z,1.40
2023-04-03T19:33:14.424Z,1.25
2023-04-03T19:35:47.895Z,1.88
2023-04-03T19:38:21.361Z,1.95
2023-04-03T19:40:56.053Z,1.20
2023-04-03T19:43:30.081Z,1.42
2023-04-03T19:46:07.076Z,1.30
2023-04-03T19:48:41.875Z,1.20
2023-04-03T19:51:15.496Z,1.50
2023-04-03T19:53:49.335Z,1.30
2023-04-03T19:58:57.097Z,1.25
2023-04-03T20:01:33.453Z,1.23
2023-04-03T20:04:07.112Z,1.50
2023-04-03T20:06:40.630Z,1.25
2023-04-03T20:09:14.645Z,1.00
2023-04-03T20:11:48.348Z,1.20
2023-04-03T20:14:21.814Z,1.63
2023-04-03T20:16:56.695Z,1.20
2023-04-03T20:19:31.563Z,1.10
2023-04-03T20:22:05.974Z,1.33
2023-04-03T20:24:39.418Z,1.50
2023-04-03T20:27:13.401Z,1.45
2023-04-03T20:29:47.093Z,1.10
2023-04-03T20:32:21.974Z,1.58
2023-04-03T20:35:03.246Z,1.20
2023-04-03T20:37:38.676Z,1.52
2023-04-03T20:40:12.948Z,2.17
2023-04-03T20:42:46.331Z,1.90
2023-04-03T20:45:21.422Z,2.03
2023-04-03T20:47:56.572Z,1.70
2023-04-03T20:50:30.460Z,1.50
2023-04-03T20:55:37.308Z,1.50
2023-04-03T20:58:11.384Z,1.63
2023-04-03T21:00:45.051Z,1.92
2023-04-03T21:03:20.305Z,1.60
2023-04-03T21:06:00.430Z,1.90
2023-04-03T21:09:11.131Z,1.88
2023-04-03T21:12:21.878Z,1.90
2023-04-03T21:15:32.615Z,1.75
2023-04-03T21:18:43.898Z,1.88
2023-04-03T21:21:23.244Z,1.40
2023-04-03T21:23:57.106Z,1.30
2023-04-03T21:29:04.239Z,1.63
2023-04-03T21:31:59.146Z,1.27
2023-04-03T21:34:34.995Z,1.70
2023-04-03T21:37:11.799Z,1.60
2023-04-03T21:40:10.161Z,1.40
2023-04-03T21:43:00.679Z,1.20
2023-04-03T21:46:13.743Z,1.25
2023-04-03T21:48:47.362Z,1.30
2023-04-03T21:51:22.197Z,1.20
2023-04-03T21:54:51.039Z,1.08
2023-04-03T21:57:24.372Z,1.50
2023-04-03T21:59:57.998Z,1.40
2023-04-03T22:05:07.529Z,1.40
2023-04-03T22:07:45.290Z,1.23
2023-04-03T22:10:18.839Z,1.10
2023-04-03T22:12:52.366Z,1.75
2023-04-03T22:15:25.690Z,1.25
2023-04-03T22:17:59.015Z,1.45
2023-04-03T22:20:32.330Z,1.30
2023-04-03T22:23:07.286Z,1.60
2023-04-03T22:25:40.628Z,1.00
2023-04-03T22:28:14.908Z,1.20
2023-04-03T22:30:48.447Z,1.42
2023-04-03T22:33:21.802Z,1.25
2023-04-03T22:35:55.181Z,1.20
2023-04-03T22:38:29.999Z,1.20
2023-04-03T22:41:04.863Z,1.20
2023-04-03T22:43:38.934Z,1.10
2023-04-03T22:46:12.313Z,1.25
2023-04-03T22:48:46.253Z,1.52
2023-04-03T22:51:19.565Z,1.15
2023-04-03T22:53:54.291Z,1.25
2023-04-03T22:56:27.836Z,1.30
2023-04-03T22:59:01.724Z,1.08
2023-04-03T23:01:37.258Z,1.27
2023-04-03T23:04:12.369Z,1.17
2023-04-03T23:06:45.735Z,1.02
2023-04-03T23:09:21.309Z,1.35
2023-04-03T23:11:54.621Z,1.10
2023-04-03T23:14:27.970Z,0.93
2023-04-03T23:17:05.628Z,1.77
2023-04-03T23:19:38.950Z,1.48
2023-04-03T23:22:14.941Z,1.45
2023-04-03T23:24:49.652Z,1.27
2023-04-03T23:27:22.968Z,1.38
2023-04-03T23:29:56.292Z,1.45
2023-04-03T23:32:30.141Z,1.45
2023-04-03T23:35:03.963Z,1.20
2023-04-03T23:37:37.281Z,1.45
2023-04-03T23:40:13.149Z,1.40
2023-04-03T23:42:46.447Z,1.25
2023-04-03T23:45:19.871Z,1.30
2023-04-03T23:47:53.239Z,1.60
2023-04-03T23:50:26.616Z,1.58
2023-04-03T23:52:59.972Z,1.42
2023-04-03T23:55:34.674Z,1.60
2023-04-03T23:58:08.019Z,1.50
